Time;durP1;ratioP1;P1;durP2;ratioP2;P2;SDS_P1;SDS_P2;PMS_P1;PMS_P2;Temp;Humidity;BMP_temperature;BMP_pressure;BME280_temperature;BME280_humidity;BME280_pressure;Samples;Min_cycle;Max_cycle;Signal;HPM_P1;HPM_P2
2021/10/28 00:13:39;;;;;;;19.80;11.83;;;11.70;99.90;;;;;;4841913;26;20483;-85
2021/10/28 00:16:26;;;;;;;15.70;11.57;;;11.70;99.90;;;;;;5008067;28;20592;-86
2021/10/28 00:22:50;;;;;;;16.80;11.50;;;11.50;99.90;;;;;;4998022;28;20502;-86
2021/10/28 00:25:43;;;;;;;14.20;10.93;;;11.50;99.90;;;;;;5010417;28;20473;-85
2021/10/28 00:28:12;;;;;;;15.17;10.90;;;11.60;99.90;;;;;;5008141;28;21880;-86
2021/10/28 00:30:39;;;;;;;15.13;10.97;;;11.60;99.90;;;;;;4994337;28;20473;-86
2021/10/28 00:33:25;;;;;;;16.87;12.50;;;11.60;99.90;;;;;;5010066;28;20455;-85
2021/10/28 00:35:52;;;;;;;16.87;10.20;;;11.60;99.90;;;;;;4990608;28;20482;-85
2021/10/28 00:38:19;;;;;;;18.17;12.47;;;11.60;99.90;;;;;;5009920;28;20480;-84
2021/10/28 00:40:46;;;;;;;15.47;12.27;;;11.60;99.90;;;;;;4989573;28;20466;-86
2021/10/28 00:43:13;;;;;;;18.23;12.03;;;11.60;99.90;;;;;;4996518;28;21070;-85
2021/10/28 00:45:40;;;;;;;13.00;10.33;;;11.40;99.90;;;;;;5009628;28;20502;-85
2021/10/28 00:48:07;;;;;;;16.80;11.87;;;11.30;99.90;;;;;;4988941;28;20478;-85
2021/10/28 00:50:34;;;;;;;16.03;11.90;;;11.40;99.90;;;;;;5006110;28;20459;-85
2021/10/28 00:53:03;;;;;;;16.03;11.30;;;11.40;99.90;;;;;;5009908;28;20461;-85
2021/10/28 00:55:35;;;;;;;14.63;10.13;;;11.40;99.90;;;;;;5004284;28;20477;-84
2021/10/28 00:58:02;;;;;;;16.20;11.00;;;11.50;99.90;;;;;;5003384;28;20462;-84
2021/10/28 01:00:30;;;;;;;13.63;10.30;;;11.40;99.90;;;;;;4988271;28;20512;-84
2021/10/28 01:03:05;;;;;;;16.80;11.30;;;11.50;99.90;;;;;;5005091;28;20450;-85
2021/10/28 01:06:12;;;;;;;16.97;11.90;;;11.60;99.90;;;;;;4987161;28;20543;-87
2021/10/28 01:08:54;;;;;;;13.30;10.50;;;11.40;99.90;;;;;;4946833;28;20446;-85
2021/10/28 01:12:21;;;;;;;15.70;11.90;;;11.50;99.90;;;;;;4934363;28;20465;-86
2021/10/28 01:14:48;;;;;;;16.97;11.63;;;11.50;99.90;;;;;;4982583;28;20553;-84
2021/10/28 01:20:51;;;;;;;17.73;12.20;;;11.60;99.90;;;;;;4982008;28;21020;-83
2021/10/28 01:23:23;;;;;;;16.60;12.47;;;11.50;99.90;;;;;;4999420;28;20451;-89
2021/10/28 01:25:57;;;;;;;18.30;11.73;;;11.50;99.90;;;;;;5007110;28;20479;-86
2021/10/28 01:28:28;;;;;;;15.83;12.40;;;11.50;99.90;;;;;;5017983;28;20451;-86
2021/10/28 01:31:00;;;;;;;16.20;12.33;;;11.30;99.90;;;;;;5001091;28;20447;-86
2021/10/28 01:33:27;;;;;;;21.40;13.50;;;11.20;99.90;;;;;;5015544;28;20458;-88
2021/10/28 01:35:55;;;;;;;17.73;12.40;;;11.40;99.90;;;;;;5018463;28;20479;-86
2021/10/28 01:38:24;;;;;;;18.40;14.20;;;11.50;99.90;;;;;;5007405;28;20471;-88
2021/10/28 01:41:00;;;;;;;20.17;12.97;;;11.30;99.90;;;;;;4988894;28;20463;-88
2021/10/28 01:43:42;;;;;;;19.80;12.70;;;11.40;99.90;;;;;;4987871;28;20428;-84
2021/10/28 01:46:11;;;;;;;18.17;12.90;;;11.50;99.90;;;;;;4983871;28;21155;-87
2021/10/28 01:48:40;;;;;;;16.67;13.17;;;11.50;99.90;;;;;;4986848;28;20463;-87
2021/10/28 01:51:10;;;;;;;17.90;12.10;;;11.50;99.90;;;;;;4987095;28;20562;-86
2021/10/28 01:53:42;;;;;;;22.90;14.03;;;11.40;99.90;;;;;;4987801;28;20554;-86
2021/10/28 01:56:10;;;;;;;20.97;13.90;;;11.50;99.90;;;;;;4989202;28;20608;-88
2021/10/28 01:58:37;;;;;;;20.73;13.37;;;11.50;99.90;;;;;;4991761;28;20480;-90
2021/10/28 02:01:06;;;;;;;18.63;12.73;;;11.50;99.90;;;;;;4989218;28;20478;-86
2021/10/28 02:03:35;;;;;;;23.60;13.97;;;11.50;99.90;;;;;;4971110;28;20784;-86
2021/10/28 02:06:03;;;;;;;17.77;12.60;;;11.50;99.90;;;;;;4990071;28;20530;-87
2021/10/28 02:08:31;;;;;;;21.90;12.87;;;11.50;99.90;;;;;;5006502;28;20456;-87
2021/10/28 02:10:59;;;;;;;21.63;13.97;;;11.50;99.90;;;;;;4988545;28;20458;-86
2021/10/28 02:13:27;;;;;;;18.80;13.00;;;11.50;99.90;;;;;;4984368;28;20940;-84
2021/10/28 02:18:26;;;;;;;22.77;15.37;;;11.30;99.90;;;;;;4981687;28;20491;-85
2021/10/28 02:24:46;;;;;;;20.03;14.23;;;11.10;99.90;;;;;;4978001;28;20425;-85
2021/10/28 02:27:13;;;;;;;20.70;14.00;;;11.30;99.90;;;;;;4984393;28;21263;-85
2021/10/28 02:29:40;;;;;;;20.33;14.50;;;11.30;99.90;;;;;;4970347;28;21636;-88
2021/10/28 02:32:09;;;;;;;23.10;15.30;;;11.30;99.90;;;;;;4984342;28;20464;-87
2021/10/28 02:34:37;;;;;;;22.97;15.63;;;11.40;99.90;;;;;;4985325;28;20444;-85
2021/10/28 02:37:05;;;;;;;22.20;15.50;;;11.40;99.90;;;;;;4969237;28;20475;-88
2021/10/28 02:39:34;;;;;;;26.23;15.60;;;11.40;99.90;;;;;;4968975;28;20494;-89
2021/10/28 02:42:02;;;;;;;22.80;14.60;;;11.30;99.90;;;;;;4969586;28;20455;-85
2021/10/28 02:44:29;;;;;;;22.50;15.70;;;11.20;99.90;;;;;;4987612;28;20446;-86
2021/10/28 02:46:57;;;;;;;21.07;14.83;;;11.30;99.90;;;;;;4986294;28;20527;-88
2021/10/28 02:49:26;;;;;;;25.20;16.17;;;11.40;99.90;;;;;;4965854;28;20994;-86
2021/10/28 02:51:54;;;;;;;21.03;13.33;;;11.20;99.90;;;;;;4962150;28;20456;-86
2021/10/28 02:54:26;;;;;;;20.50;14.27;;;11.30;99.90;;;;;;4967178;28;22316;-86
2021/10/28 02:56:53;;;;;;;22.33;14.20;;;11.10;99.90;;;;;;4977002;28;20480;-88
2021/10/28 03:00:00;;;;;;;21.93;14.90;;;11.40;99.90;;;;;;4978244;28;21009;-87
2021/10/28 03:03:20;;;;;;;21.83;15.23;;;11.30;99.90;;;;;;4904558;29;20472;-88
2021/10/28 03:09:32;;;;;;;20.60;14.10;;;11.40;99.90;;;;;;5037146;23;20570;-84
2021/10/28 03:12:11;;;;;;;19.87;13.60;;;11.40;99.90;;;;;;4981713;28;20997;-87
2021/10/28 03:14:44;;;;;;;20.33;14.07;;;11.40;99.90;;;;;;4977198;28;20455;-87
2021/10/28 03:28:01;;;;;;;19.67;13.37;;;11.10;99.90;;;;;;4990857;28;20476;-87
2021/10/28 03:30:28;;;;;;;19.10;13.70;;;11.10;99.90;;;;;;4972761;28;20827;-86
2021/10/28 03:32:55;;;;;;;18.70;13.73;;;11.00;99.90;;;;;;4989686;28;20467;-87
2021/10/28 03:36:22;;;;;;;21.37;13.50;;;11.00;99.90;;;;;;4971695;28;20861;-84
2021/10/28 03:39:14;;;;;;;20.57;14.03;;;11.20;99.90;;;;;;4966241;28;20526;-84
2021/10/28 03:47:10;;;;;;;19.27;13.67;;;11.20;99.90;;;;;;4991534;28;20483;-86
2021/10/28 04:08:53;;;;;;;21.70;14.67;;;11.10;99.90;;;;;;4990651;28;21179;-85
2021/10/28 04:20:20;;;;;;;21.63;14.93;;;11.10;99.90;;;;;;4934729;28;20492;-85
2021/10/28 04:30:01;;;;;;;26.37;13.73;;;10.90;99.90;;;;;;4934430;28;21035;-85
2021/10/28 04:33:28;;;;;;;;;;;;;;;;;;;;;
2021/10/28 04:35:55;;;;;;;20.47;14.10;;;10.90;99.90;;;;;;4844363;29;21070;-84
2021/10/28 04:38:22;;;;;;;23.70;15.73;;;10.90;99.90;;;;;;4849628;28;21288;-87
2021/10/28 04:40:48;;;;;;;25.60;16.37;;;11.10;99.90;;;;;;4932371;28;20474;-84
2021/10/28 04:43:15;;;;;;;25.70;14.97;;;11.10;99.90;;;;;;4920118;28;20469;-87
2021/10/28 04:45:42;;;;;;;28.63;16.80;;;11.00;99.90;;;;;;4937835;28;20485;-85
2021/10/28 04:48:10;;;;;;;25.13;15.87;;;11.00;99.90;;;;;;4921045;28;20465;-86
2021/10/28 04:50:37;;;;;;;24.73;15.40;;;11.10;99.90;;;;;;4939132;28;20475;-86
2021/10/28 04:56:32;;;;;;;27.60;16.27;;;10.90;99.90;;;;;;4862287;28;21185;-86
2021/10/28 05:02:38;;;;;;;30.60;18.30;;;10.90;99.90;;;;;;4985625;28;20525;-86
2021/10/28 05:05:05;;;;;;;29.80;16.90;;;10.80;99.90;;;;;;4985318;28;20460;-85
2021/10/28 05:07:32;;;;;;;29.00;16.60;;;11.00;99.90;;;;;;4957406;28;22249;-87
2021/10/28 05:09:59;;;;;;;35.87;21.50;;;11.10;99.90;;;;;;4967349;28;21038;-86
2021/10/28 05:12:28;;;;;;;32.90;19.30;;;10.80;99.90;;;;;;4965151;28;20575;-85
2021/10/28 05:15:43;;;;;;;;;;;;;;;;;;;;;
2021/10/28 05:19:17;;;;;;;28.03;16.33;;;10.90;99.90;;;;;;4980210;28;20490;-87
2021/10/28 05:22:08;;;;;;;32.43;17.50;;;10.80;99.90;;;;;;4824340;29;20464;-87
2021/10/28 05:27:41;;;;;;;27.53;16.20;;;10.80;99.90;;;;;;4991212;23;20503;-87
2021/10/28 05:30:37;;;;;;;28.27;16.70;;;11.00;99.90;;;;;;4972151;28;20440;-85
2021/10/28 05:33:04;;;;;;;28.40;17.20;;;10.90;99.90;;;;;;4957628;28;20953;-83
2021/10/28 05:35:34;;;;;;;27.07;16.47;;;10.90;99.90;;;;;;4973296;28;20478;-84
2021/10/28 05:38:01;;;;;;;31.67;16.80;;;11.00;99.90;;;;;;4968225;28;20802;-87
2021/10/28 05:40:28;;;;;;;30.07;18.30;;;11.00;99.90;;;;;;4980851;28;20484;-86
2021/10/28 05:43:33;;;;;;;31.60;17.77;;;11.00;99.90;;;;;;5001404;28;20450;-86
2021/10/28 05:46:24;;;;;;;32.53;18.70;;;10.90;99.90;;;;;;4885983;29;20534;-86
2021/10/28 05:48:51;;;;;;;25.87;16.63;;;10.80;99.90;;;;;;4886432;29;20460;-84
2021/10/28 05:51:17;;;;;;;36.57;20.30;;;10.90;99.90;;;;;;4864916;29;20472;-85
2021/10/28 06:01:01;;;;;;;32.43;18.80;;;10.70;99.90;;;;;;4833116;29;20514;-87
2021/10/28 06:03:36;;;;;;;36.90;19.97;;;10.90;99.90;;;;;;4891494;29;20455;-87
2021/10/28 06:10:46;;;;;;;30.37;18.67;;;11.00;99.90;;;;;;4869061;29;20516;-87
2021/10/28 06:17:46;;;;;;;27.73;15.63;;;11.00;99.90;;;;;;5041323;23;20548;-85
2021/10/28 06:22:13;;;;;;;30.73;18.20;;;10.90;99.90;;;;;;4941125;28;20498;-85
2021/10/28 06:24:23;;;;;;;29.83;17.13;;;11.00;99.90;;;;;;4973579;28;20559;-85
2021/10/28 06:26:53;;;;;;;34.30;18.17;;;10.90;99.90;;;;;;4967314;28;20492;-87
2021/10/28 06:33:46;;;;;;;27.40;17.13;;;10.80;99.90;;;;;;4928921;29;20501;-86
2021/10/28 06:36:27;;;;;;;26.40;16.70;;;10.90;99.90;;;;;;4879963;29;20469;-86
2021/10/28 06:38:57;;;;;;;27.30;16.93;;;10.90;99.90;;;;;;4916119;29;20470;-86
2021/10/28 06:41:25;;;;;;;26.37;17.00;;;10.70;99.90;;;;;;4906675;29;20501;-87
2021/10/28 06:44:03;;;;;;;22.60;14.37;;;10.70;99.90;;;;;;4917268;29;20656;-85
2021/10/28 06:46:30;;;;;;;25.33;16.80;;;10.70;99.90;;;;;;4917043;29;20495;-84
2021/10/28 06:49:38;;;;;;;25.90;16.47;;;10.80;99.90;;;;;;4918046;29;20950;-87
2021/10/28 06:52:14;;;;;;;26.10;14.47;;;10.90;99.90;;;;;;4911437;29;20465;-86
2021/10/28 06:54:42;;;;;;;26.53;15.90;;;10.90;99.90;;;;;;5025888;22;20525;-86
2021/10/28 07:03:49;;;;;;;23.73;15.67;;;10.80;99.90;;;;;;4983668;28;20529;-85
2021/10/28 07:06:36;;;;;;;25.67;15.20;;;10.80;99.90;;;;;;4983088;28;20488;-86
2021/10/28 07:09:15;;;;;;;23.87;15.73;;;10.90;99.90;;;;;;4972847;28;20456;-84
2021/10/28 07:11:42;;;;;;;24.70;14.87;;;10.90;99.90;;;;;;4988166;28;20469;-87
2021/10/28 07:14:11;;;;;;;29.63;15.83;;;10.90;99.90;;;;;;4968950;28;20470;-85
2021/10/28 07:39:15;;;;;;;21.23;12.90;;;12.60;99.90;;;;;;4990172;28;20961;-84
2021/10/28 08:15:44;;;;;;;20.03;14.33;;;11.70;99.90;;;;;;4993697;28;20521;-85
2021/10/28 08:30:30;;;;;;;18.40;12.80;;;11.90;99.90;;;;;;4925275;28;20467;-86
2021/10/28 08:36:51;;;;;;;16.87;12.10;;;12.20;99.90;;;;;;4919074;28;20486;-86
2021/10/28 08:39:21;;;;;;;19.03;14.23;;;12.10;99.90;;;;;;4926598;28;20486;-85
2021/10/28 08:41:48;;;;;;;18.70;12.73;;;12.00;99.90;;;;;;4940971;28;21823;-86
2021/10/28 08:44:23;;;;;;;16.03;12.40;;;12.10;99.90;;;;;;4924707;28;20457;-86
2021/10/28 08:47:37;;;;;;;16.30;13.67;;;12.10;99.90;;;;;;4851130;29;20487;-85
2021/10/28 08:50:09;;;;;;;17.13;12.30;;;12.10;99.90;;;;;;4879225;28;20477;-85
2021/10/28 08:52:51;;;;;;;16.40;12.83;;;11.90;99.90;;;;;;4939594;28;20473;-86
2021/10/28 08:55:38;;;;;;;19.23;13.27;;;12.10;99.90;;;;;;4926246;28;20827;-85
2021/10/28 09:26:54;;;;;;;16.33;13.10;;;12.70;99.90;;;;;;4962397;28;21566;-85
2021/10/28 09:32:42;;;;;;;20.33;13.57;;;13.00;99.90;;;;;;4915914;29;21079;-85
2021/10/28 09:45:49;;;;;;;13.67;10.07;;;19.10;93.80;;;;;;4983780;28;20471;-85
2021/10/28 09:51:05;;;;;;;16.03;11.97;;;19.00;93.00;;;;;;4988979;28;20543;-84
2021/10/28 10:00:39;;;;;;;14.87;12.33;;;17.30;94.50;;;;;;4906669;28;20483;-85
2021/10/28 10:03:22;;;;;;;15.33;11.97;;;16.40;96.20;;;;;;4963110;28;20478;-86
2021/10/28 10:06:03;;;;;;;13.63;11.83;;;15.90;97.20;;;;;;4987272;28;20475;-86
2021/10/28 10:08:34;;;;;;;15.70;11.33;;;15.70;98.00;;;;;;4977893;28;20529;-85
2021/10/28 10:11:02;;;;;;;12.73;10.60;;;15.00;99.30;;;;;;4975997;28;20470;-85
2021/10/28 10:13:30;;;;;;;12.13;10.73;;;14.80;99.90;;;;;;4988039;28;20546;-86
2021/10/28 10:16:00;;;;;;;15.00;11.90;;;14.70;99.90;;;;;;4971347;28;20871;-85
2021/10/28 10:18:30;;;;;;;13.00;10.70;;;15.10;99.90;;;;;;4961139;28;20521;-85
2021/10/28 10:26:21;;;;;;;15.57;12.33;;;14.80;99.90;;;;;;4987683;28;20517;-85
2021/10/28 11:30:10;;;;;;;14.20;9.10;;;15.60;97.90;;;;;;4987817;28;20460;-86
2021/10/28 11:32:38;;;;;;;11.23;9.30;;;15.60;97.80;;;;;;4983504;28;20973;-87
2021/10/28 12:46:03;;;;;;;14.53;10.50;;;15.80;97.60;;;;;;1456192;26;20617;-86
2021/10/28 14:35:12;;;;;;;14.20;11.30;;;15.80;99.40;;;;;;4999225;28;20438;-86
2021/10/28 15:36:01;;;;;;;12.87;11.50;;;15.60;99.90;;;;;;4981573;28;20562;-86
2021/10/28 15:38:45;;;;;;;13.60;12.20;;;15.50;99.90;;;;;;4964474;28;20462;-85
2021/10/28 15:41:39;;;;;;;14.80;11.97;;;15.40;99.90;;;;;;4982611;28;20487;-85
2021/10/28 16:25:00;;;;;;;20.27;15.20;;;14.70;99.90;;;;;;4985831;28;20451;-87
2021/10/28 16:27:33;;;;;;;19.27;15.43;;;14.50;99.90;;;;;;4298279;28;10000733;-87
2021/10/28 16:30:04;;;;;;;18.47;15.00;;;14.40;99.90;;;;;;4968180;28;20484;-86
2021/10/28 16:32:34;;;;;;;18.97;14.57;;;14.50;99.90;;;;;;4968626;28;20471;-85
2021/10/28 16:35:05;;;;;;;17.33;15.13;;;14.50;99.90;;;;;;5097765;23;20522;-86
2021/10/28 16:37:40;;;;;;;15.50;12.77;;;14.30;99.90;;;;;;4995625;28;21639;-86
2021/10/28 16:44:18;;;;;;;18.37;13.87;;;13.90;99.90;;;;;;5013158;28;20458;-86
2021/10/28 16:54:11;;;;;;;20.70;15.27;;;13.90;99.90;;;;;;4974540;28;20426;-87
2021/10/28 16:57:27;;;;;;;17.33;13.70;;;14.00;99.90;;;;;;4972735;28;21008;-85
2021/10/28 17:00:40;;;;;;;17.63;14.37;;;13.80;99.90;;;;;;4867999;29;20622;-84
2021/10/28 17:07:32;;;;;;;19.63;14.87;;;13.60;99.90;;;;;;4929915;29;20468;-83
2021/10/28 17:10:29;;;;;;;21.03;13.63;;;13.60;99.90;;;;;;4868954;29;20550;-86
2021/10/28 17:13:52;;;;;;;15.23;12.00;;;13.30;99.90;;;;;;4785623;29;20473;-85
2021/10/28 17:19:10;;;;;;;19.97;16.10;;;13.30;99.90;;;;;;4969997;28;20496;-84
2021/10/28 17:22:36;;;;;;;;;;;;;;;;;;;;;
2021/10/28 17:25:50;;;;;;;;;;;;;;;;;;;;;
2021/10/28 17:28:43;;;;;;;22.87;17.40;;;12.90;99.90;;;;;;4983780;28;20455;-85
2021/10/28 17:31:10;;;;;;;25.40;16.73;;;13.00;99.90;;;;;;4975034;28;20451;-86
2021/10/28 17:33:37;;;;;;;21.87;15.80;;;13.00;99.90;;;;;;4970716;28;20483;-84
2021/10/28 17:36:07;;;;;;;23.00;18.50;;;13.10;99.90;;;;;;4960354;28;20741;-86
2021/10/28 17:38:40;;;;;;;23.93;17.67;;;12.80;99.90;;;;;;4968277;28;20481;-85
2021/10/28 17:41:17;;;;;;;26.80;18.07;;;12.80;99.90;;;;;;4951437;28;20488;-85
2021/10/28 17:44:10;;;;;;;26.17;17.40;;;12.80;99.90;;;;;;4970649;28;20902;-85
2021/10/28 17:47:01;;;;;;;21.60;17.00;;;12.80;99.90;;;;;;4977615;28;20495;-86
2021/10/28 17:57:25;;;;;;;24.93;17.70;;;12.50;99.90;;;;;;4956451;28;20537;-86
2021/10/28 18:11:26;;;;;;;22.20;17.90;;;12.20;99.90;;;;;;4979466;28;20450;-86
2021/10/28 18:14:47;;;;;;;21.13;16.40;;;12.40;99.90;;;;;;4941563;28;20448;-86
2021/10/28 18:20:12;;;;;;;23.63;18.20;;;12.20;99.90;;;;;;6013480;23;20681;-84
2021/10/28 18:23:29;;;;;;;22.57;15.37;;;12.10;99.90;;;;;;4986267;28;20488;-86
2021/10/28 18:34:15;;;;;;;23.27;16.23;;;12.10;99.90;;;;;;4943334;29;20555;-85
2021/10/28 18:37:19;;;;;;;22.80;16.83;;;12.00;99.90;;;;;;4940641;28;20542;-85
2021/10/28 19:05:45;;;;;;;24.97;15.77;;;11.60;99.90;;;;;;4991315;28;20558;-85
2021/10/28 19:08:15;;;;;;;25.63;18.90;;;11.60;99.90;;;;;;4973753;28;20466;-86
2021/10/28 19:10:56;;;;;;;21.90;16.10;;;11.70;99.90;;;;;;4981697;28;20469;-87
2021/10/28 19:13:26;;;;;;;27.40;17.50;;;11.80;99.90;;;;;;4999883;28;20445;-86
2021/10/28 19:18:44;;;;;;;24.27;16.87;;;11.70;99.90;;;;;;5010503;23;20523;-86
2021/10/28 19:21:13;;;;;;;25.63;18.50;;;11.70;99.90;;;;;;4991918;28;20462;-86
2021/10/28 19:32:41;;;;;;;25.23;17.23;;;11.60;99.90;;;;;;4951247;28;20423;-88
2021/10/28 19:55:43;;;;;;;22.27;16.53;;;11.70;99.90;;;;;;1534860;22;21658;-83
2021/10/28 20:24:21;;;;;;;;;;;;;;;;;;;;;
2021/10/28 20:30:28;;;;;;;25.60;17.73;;;11.20;99.90;;;;;;5157887;23;20495;-87
2021/10/28 20:32:55;;;;;;;23.27;17.03;;;11.10;99.90;;;;;;4994762;28;21088;-87
2021/10/28 20:37:55;;;;;;;24.63;16.60;;;11.30;99.90;;;;;;4982866;28;20462;-88
2021/10/28 20:40:37;;;;;;;22.93;15.40;;;11.10;99.90;;;;;;4964595;28;20459;-89
2021/10/28 20:43:04;;;;;;;26.00;17.37;;;11.20;99.90;;;;;;4963967;28;20767;-87
2021/10/28 20:49:17;;;;;;;25.67;16.07;;;11.10;99.90;;;;;;4934296;28;22372;-87
2021/10/28 20:51:46;;;;;;;25.00;17.20;;;11.00;99.90;;;;;;4968339;28;20443;-87
2021/10/28 20:54:21;;;;;;;29.30;19.63;;;11.00;99.90;;;;;;4985747;28;21071;-88
2021/10/28 21:01:22;;;;;;;;;;;;;;;;;;;;;
2021/10/28 21:23:03;;;;;;;24.20;18.20;;;10.70;99.90;;;;;;5184214;22;20530;-85
2021/10/28 21:25:33;;;;;;;23.23;16.30;;;10.70;99.90;;;;;;4952015;28;20531;-85
2021/10/28 21:28:10;;;;;;;24.57;17.90;;;10.80;99.90;;;;;;4953300;28;20480;-86
2021/10/28 21:30:41;;;;;;;23.13;16.30;;;10.90;99.90;;;;;;4959301;28;20460;-87
2021/10/28 21:33:09;;;;;;;27.13;17.57;;;10.90;99.90;;;;;;4943791;28;20569;-87
2021/10/28 21:35:43;;;;;;;23.53;17.63;;;10.80;99.90;;;;;;4942782;28;20507;-86
2021/10/28 21:38:15;;;;;;;26.53;17.80;;;10.70;99.90;;;;;;4956368;28;20514;-85
2021/10/28 21:40:42;;;;;;;26.10;17.30;;;10.70;99.90;;;;;;4938941;28;21136;-85
2021/10/28 21:43:17;;;;;;;25.13;17.83;;;10.70;99.90;;;;;;4940829;28;20591;-85
2021/10/28 21:46:01;;;;;;;24.20;15.97;;;10.70;99.90;;;;;;4944743;28;20469;-86
2021/10/28 21:48:28;;;;;;;25.17;18.20;;;10.70;99.90;;;;;;4956437;28;20502;-88
2021/10/28 21:51:01;;;;;;;26.90;17.73;;;10.80;99.90;;;;;;4942139;28;20460;-85
2021/10/28 21:53:32;;;;;;;25.53;16.90;;;10.80;99.90;;;;;;4938414;28;20551;-84
2021/10/28 21:58:53;;;;;;;21.47;14.50;;;10.60;99.90;;;;;;4958164;28;20491;-86
2021/10/28 22:04:58;;;;;;;21.60;14.87;;;10.60;99.90;;;;;;4877619;28;20460;-87
2021/10/28 22:26:41;;;;;;;23.70;15.57;;;10.50;99.90;;;;;;4956147;23;20574;-88
2021/10/28 22:29:07;;;;;;;20.57;15.47;;;10.40;99.90;;;;;;4274972;28;10000751;-88
2021/10/28 22:31:34;;;;;;;23.20;15.37;;;10.40;99.90;;;;;;4959710;28;20195;-85
2021/10/28 22:34:01;;;;;;;21.43;15.10;;;10.40;99.90;;;;;;4961458;28;20495;-86
2021/10/28 22:36:41;;;;;;;25.47;18.03;;;10.40;99.90;;;;;;4953048;28;20483;-86
2021/10/28 22:39:13;;;;;;;22.23;15.30;;;10.30;99.90;;;;;;4957412;28;20460;-85
2021/10/28 22:41:40;;;;;;;24.57;16.67;;;10.40;99.90;;;;;;4958512;28;20475;-86
2021/10/28 22:44:07;;;;;;;22.77;13.50;;;10.40;99.90;;;;;;4954747;28;20486;-85
2021/10/28 22:46:34;;;;;;;23.60;16.73;;;10.40;99.90;;;;;;4957413;28;20491;-86
2021/10/28 22:49:01;;;;;;;23.00;14.10;;;10.40;99.90;;;;;;4952297;28;20464;-86
2021/10/28 22:51:29;;;;;;;24.80;16.20;;;10.40;99.90;;;;;;4956367;28;20574;-87
2021/10/28 22:54:06;;;;;;;22.67;13.97;;;10.40;99.90;;;;;;4969502;28;20584;-87
2021/10/28 22:56:37;;;;;;;24.07;15.70;;;10.40;99.90;;;;;;4968242;28;20614;-87
2021/10/28 22:59:06;;;;;;;27.00;17.67;;;10.30;99.90;;;;;;4967808;28;20457;-86
2021/10/28 23:02:00;;;;;;;23.10;16.47;;;10.30;99.90;;;;;;4972130;28;20475;-85
2021/10/28 23:20:39;;;;;;;20.63;14.60;;;10.30;99.90;;;;;;4971975;28;20519;-87
2021/10/28 23:23:08;;;;;;;23.23;17.03;;;10.30;99.90;;;;;;4956765;28;20487;-85
2021/10/28 23:25:41;;;;;;;26.73;15.57;;;10.30;99.90;;;;;;4955612;28;20487;-88
2021/10/28 23:28:23;;;;;;;20.70;14.37;;;10.30;99.90;;;;;;4957025;28;20465;-86
2021/10/28 23:30:50;;;;;;;25.37;16.90;;;10.30;99.90;;;;;;4959394;28;20461;-85
2021/10/28 23:37:30;;;;;;;20.47;13.97;;;10.30;99.90;;;;;;4917307;29;20588;-86
2021/10/28 23:40:08;;;;;;;20.07;14.70;;;10.30;99.90;;;;;;4953709;28;20468;-85
2021/10/28 23:42:35;;;;;;;25.90;14.30;;;10.40;99.90;;;;;;4972505;28;20508;-87
2021/10/28 23:45:02;;;;;;;22.83;16.73;;;10.40;99.90;;;;;;4955556;28;21045;-87
2021/10/28 23:47:28;;;;;;;24.00;15.43;;;10.40;99.90;;;;;;4957386;28;20494;-85
2021/10/28 23:49:55;;;;;;;24.97;15.87;;;10.40;99.90;;;;;;4966645;28;20451;-86
2021/10/28 23:52:24;;;;;;;23.10;14.47;;;10.40;99.90;;;;;;4948866;28;20457;-85
2021/10/28 23:54:51;;;;;;;21.80;14.50;;;10.40;99.90;;;;;;4965745;28;20450;-85
2021/10/28 23:57:18;;;;;;;16.67;12.17;;;10.40;99.90;;;;;;4966820;28;20957;-85
2021/10/28 23:59:45;;;;;;;25.07;15.60;;;10.30;99.90;;;;;;4966293;28;20461;-85
